Aérodrome :
LOGIN :

S'inscrire | Disclaimer

   EN    FR    IT 

 










Légende :    VFR   VFR Marginal   IFR   IFR Intensif   IFR Très Intensif
Visi : 
Plafond : 
>= 8 km
>= 3000ft
5 à 8 km
1000 à 3000 ft
1500m à 5 km
500 à 1000 ft
800 à 1500m
200 à 500 ft
< 800m
< 200 ft
Symboles :   Orages  Brouillard  Fortes neiges  Fortes précipitations  Vent > 20 kt
SIGMETs :   Divers  Orages  Givrage  Turbulence  Onde Orograph.  Cendres Volcan.







- Altitude de l'aérodrome : 325 ft
- Code IATA : POX
- Voir les cartes d'approche


LFPT - Pontoise

DERNIER METAR :
  • 222130Z AUTO 04006KT CAVOK 07/05 Q1008

METARs EXPIRÉS :
  • 222100Z AUTO 03007KT 9999 ///TCU 07/06 Q1009
  • 222030Z AUTO 29003KT 9999 -RA OVC047/// ///TCU 07/06 Q1009
  • 222000Z AUTO 03005KT 9999 -DZ ///TCU 07/06 Q1008
  • 221930Z AUTO 03003KT 9999 -RA FEW042 SCT048 OVC056 07/06 Q1008
  • 221900Z AUTO VRB02KT 9999 -RA SCT035/// BKN045/// OVC058/// ///TCU 07/05 Q1009

TAF N/A
ATIS : +33 1 30 30 52 08
Pas de NOTAMs connus pour ce terrain.



MET'MAP, la Météo Aéronautique d'un coup d'oeil ! - Copyright ORBIFLY Décembre 2007 - Disclaimer

ORBIFLY MET'MAP TEAM :

Programmation & Développement : Alexandra Zaïnal
Conception & Développement : Baudouin d'Aumeries
Co-Programmation & Développement : Marc-Olivier Méhu
Soutien technique & logistique : Manuel Goepfert

Contact : metmap@orbifly.com




SOURCES & CREDITS :

   NOAA